TimePDT,TemperatureF,Dew PointF,Humidity,Sea Level PressureIn,VisibilityMPH,Wind Direction,Wind SpeedMPH,Gust SpeedMPH,PrecipitationIn,Events,Conditions,WindDirDegrees,DateUTC
12:15 AM,48.2,44.6,87,30.20,10.0,Calm,Calm,-,N/A,,Clear,0,2013-05-10 07:15:00
12:35 AM,48.2,46.4,93,30.20,10.0,Calm,Calm,-,N/A,,Clear,0,2013-05-10 07:35:00
12:55 AM,48.2,44.6,87,30.21,10.0,Calm,Calm,-,N/A,,Clear,0,2013-05-10 07:55:00
1:15 AM,46.4,42.8,87,30.21,8.0,Calm,Calm,-,N/A,,Clear,0,2013-05-10 08:15:00
1:35 AM,46.4,44.6,93,30.21,8.0,Calm,Calm,-,N/A,,Clear,0,2013-05-10 08:35:00
1:55 AM,46.4,46.4,100,30.21,7.0,Calm,Calm,-,N/A,,Clear,0,2013-05-10 08:55:00
2:15 AM,46.4,44.6,93,30.21,9.0,Calm,Calm,-,N/A,,Clear,0,2013-05-10 09:15:00
2:35 AM,46.4,44.6,93,30.21,7.0,Calm,Calm,-,N/A,,Clear,0,2013-05-10 09:35:00
2:55 AM,44.6,42.8,93,30.21,5.0,Calm,Calm,-,N/A,,Clear,0,2013-05-10 09:55:00
3:15 AM,46.4,44.6,93,30.21,7.0,Calm,Calm,-,N/A,,Clear,0,2013-05-10 10:15:00
3:35 AM,44.6,42.8,93,30.22,4.0,Calm,Calm,-,N/A,,Clear,0,2013-05-10 10:35:00
3:55 AM,44.6,42.8,93,30.22,2.0,Calm,Calm,-,N/A,,Clear,0,2013-05-10 10:55:00
4:15 AM,46.4,44.6,93,30.21,8.0,Calm,Calm,-,N/A,,Clear,0,2013-05-10 11:15:00
4:35 AM,46.4,44.6,93,30.22,7.0,Calm,Calm,-,N/A,,Clear,0,2013-05-10 11:35:00
5:15 AM,44.6,42.8,93,30.21,4.0,Calm,Calm,-,N/A,,Clear,0,2013-05-10 12:15:00
5:35 AM,44.6,42.8,93,30.22,3.0,Calm,Calm,-,N/A,,Mostly Cloudy,0,2013-05-10 12:35:00
6:15 AM,46.4,44.6,93,30.21,0.2,Calm,Calm,-,N/A,,Overcast,0,2013-05-10 13:15:00
6:35 AM,46.4,44.6,93,30.22,0.2,NW,3.5,-,N/A,,Overcast,310,2013-05-10 13:35:00
6:55 AM,46.4,44.6,93,30.23,0.2,NNW,3.5,-,N/A,,Overcast,340,2013-05-10 13:55:00
7:15 AM,46.4,44.6,93,30.23,0.2,Calm,Calm,-,N/A,,Overcast,0,2013-05-10 14:15:00
7:35 AM,46.4,44.6,93,30.23,0.2,Calm,Calm,-,N/A,,Overcast,0,2013-05-10 14:35:00
7:55 AM,48.2,46.4,93,30.23,0.2,Calm,Calm,-,N/A,,Overcast,0,2013-05-10 14:55:00
8:15 AM,48.2,48.2,100,30.23,0.2,Calm,Calm,-,N/A,,Overcast,0,2013-05-10 15:15:00
8:35 AM,50.0,48.2,94,30.23,3.0,Calm,Calm,-,N/A,,Overcast,0,2013-05-10 15:35:00
8:55 AM,51.8,48.2,88,30.23,5.0,Calm,Calm,-,N/A,,Mostly Cloudy,0,2013-05-10 15:55:00
9:15 AM,55.4,51.8,88,30.23,6.0,Calm,Calm,-,N/A,,Partly Cloudy,0,2013-05-10 16:15:00
9:35 AM,55.4,51.8,88,30.23,7.0,Calm,Calm,-,N/A,,Clear,0,2013-05-10 16:35:00
10:15 AM,60.8,53.6,77,30.22,10.0,Calm,Calm,-,N/A,,Clear,0,2013-05-10 17:15:00
10:35 AM,62.6,55.4,77,30.21,10.0,Calm,Calm,-,N/A,,Clear,0,2013-05-10 17:35:00
10:55 AM,64.4,55.4,73,30.21,10.0,Calm,Calm,-,N/A,,Clear,0,2013-05-10 17:55:00
11:15 AM,66.2,53.6,64,30.21,5.0,SSE,3.5,-,N/A,,Clear,160,2013-05-10 18:15:00
11:35 AM,68.0,55.4,64,30.20,10.0,Calm,Calm,-,N/A,,Clear,0,2013-05-10 18:35:00
11:55 AM,69.8,53.6,56,30.20,10.0,SSW,4.6,-,N/A,,Clear,210,2013-05-10 18:55:00
12:15 PM,69.8,57.2,64,30.20,10.0,NNW,9.2,-,N/A,,Clear,340,2013-05-10 19:15:00
12:35 PM,68.0,57.2,68,30.20,10.0,NNW,10.4,-,N/A,,Clear,330,2013-05-10 19:35:00
12:55 PM,69.8,57.2,64,30.19,10.0,NNW,8.1,-,N/A,,Clear,330,2013-05-10 19:55:00
1:15 PM,69.8,57.2,64,30.18,10.0,NNW,4.6,-,N/A,,Clear,340,2013-05-10 20:15:00
1:35 PM,71.6,57.2,60,30.18,10.0,NNW,8.1,-,N/A,,Clear,330,2013-05-10 20:35:00
1:55 PM,71.6,57.2,60,30.18,10.0,NW,10.4,-,N/A,,Clear,320,2013-05-10 20:55:00
2:15 PM,71.6,55.4,57,30.18,10.0,NW,10.4,-,N/A,,Clear,320,2013-05-10 21:15:00
2:35 PM,73.4,53.6,50,30.17,10.0,NW,10.4,-,N/A,,Clear,320,2013-05-10 21:35:00
2:55 PM,73.4,53.6,50,30.17,10.0,NW,8.1,-,N/A,,Clear,320,2013-05-10 21:55:00
3:15 PM,73.4,55.4,53,30.17,10.0,NNW,9.2,-,N/A,,Clear,330,2013-05-10 22:15:00
3:35 PM,73.4,55.4,53,30.16,10.0,NW,9.2,-,N/A,,Clear,320,2013-05-10 22:35:00
3:55 PM,71.6,53.6,53,30.16,10.0,NW,10.4,-,N/A,,Clear,320,2013-05-10 22:55:00
4:15 PM,71.6,53.6,53,30.15,10.0,NW,6.9,-,N/A,,Clear,310,2013-05-10 23:15:00
4:35 PM,73.4,55.4,53,30.15,10.0,WNW,9.2,-,N/A,,Clear,300,2013-05-10 23:35:00
4:55 PM,73.4,53.6,50,30.14,10.0,NW,5.8,-,N/A,,Clear,320,2013-05-10 23:55:00
5:15 PM,71.6,55.4,57,30.14,10.0,NW,5.8,-,N/A,,Clear,310,2013-05-11 00:15:00
5:35 PM,73.4,53.6,50,30.14,10.0,NW,6.9,-,N/A,,Clear,310,2013-05-11 00:35:00
5:55 PM,71.6,53.6,53,30.14,10.0,NW,8.1,-,N/A,,Clear,320,2013-05-11 00:55:00
6:15 PM,71.6,53.6,53,30.14,10.0,NW,6.9,-,N/A,,Clear,320,2013-05-11 01:15:00
6:35 PM,69.8,53.6,56,30.14,10.0,NW,5.8,-,N/A,,Clear,320,2013-05-11 01:35:00
6:55 PM,68.0,51.8,56,30.14,10.0,NW,6.9,-,N/A,,Clear,320,2013-05-11 01:55:00
7:15 PM,66.2,50.0,56,30.14,10.0,NW,6.9,-,N/A,,Clear,320,2013-05-11 02:15:00
7:35 PM,64.4,50.0,59,30.14,10.0,NNW,5.8,-,N/A,,Clear,330,2013-05-11 02:35:00
7:55 PM,62.6,48.2,59,30.14,10.0,NW,5.8,-,N/A,,Clear,320,2013-05-11 02:55:00
8:15 PM,60.8,48.2,63,30.14,10.0,NNW,3.5,-,N/A,,Clear,330,2013-05-11 03:15:00
8:35 PM,60.8,48.2,63,30.15,10.0,Calm,Calm,-,N/A,,Clear,0,2013-05-11 03:35:00
8:55 PM,60.8,48.2,63,30.15,10.0,North,-9999.0,-,N/A,,Clear,0,2013-05-11 03:55:00
9:15 PM,57.2,48.2,72,30.16,10.0,North,3.5,-,N/A,,Clear,350,2013-05-11 04:15:00
9:35 PM,57.2,48.2,72,30.16,10.0,Calm,Calm,-,N/A,,Clear,0,2013-05-11 04:35:00
9:55 PM,55.4,46.4,72,30.18,10.0,Calm,Calm,-,N/A,,Clear,0,2013-05-11 04:55:00
10:15 PM,55.4,46.4,72,30.17,10.0,Calm,Calm,-,N/A,,Clear,0,2013-05-11 05:15:00
10:35 PM,55.4,46.4,72,30.17,10.0,Calm,Calm,-,N/A,,Clear,0,2013-05-11 05:35:00
10:55 PM,55.4,46.4,72,30.17,10.0,Calm,Calm,-,N/A,,Clear,0,2013-05-11 05:55:00
11:15 PM,53.6,46.4,77,30.18,10.0,Calm,Calm,-,N/A,,Clear,0,2013-05-11 06:15:00
11:35 PM,53.6,46.4,77,30.18,10.0,Calm,Calm,-,N/A,,Clear,0,2013-05-11 06:35:00
11:55 PM,53.6,46.4,77,30.19,10.0,Calm,Calm,-,N/A,,Clear,0,2013-05-11 06:55:00